Time;durP1;ratioP1;P1;durP2;ratioP2;P2;SDS_P1;SDS_P2;PMS_P1;PMS_P2;Temp;Humidity;BMP_temperature;BMP_pressure;BME280_temperature;BME280_humidity;BME280_pressure;Samples;Min_cycle;Max_cycle;Signal;HPM_P1;HPM_P2
2023/07/20 00:05:39;;;;;;;6.28;1.83;;;;;;;19.08;54.62;97330.16;10529604;28;20051;-68
2023/07/20 00:11:00;;;;;;;4.63;1.35;;;;;;;19.22;54.68;97346.09;10526336;28;20119;-67
2023/07/20 00:16:20;;;;;;;2.67;1.20;;;;;;;19.34;54.65;97360.56;10541334;28;20122;-68
2023/07/20 00:21:42;;;;;;;5.53;1.38;;;;;;;19.45;54.65;97353.78;10540972;28;20129;-68
2023/07/20 00:27:03;;;;;;;2.83;1.33;;;;;;;19.50;54.82;97341.19;10540750;28;20047;-67
2023/07/20 00:32:24;;;;;;;4.43;1.17;;;;;;;19.51;54.87;97339.78;10525649;28;20119;-67
2023/07/20 00:37:45;;;;;;;2.85;1.13;;;;;;;19.42;54.95;97340.97;10525439;28;20066;-67
2023/07/20 00:43:05;;;;;;;4.10;1.10;;;;;;;19.26;54.99;97317.88;10525335;28;20119;-67
2023/07/20 00:48:26;;;;;;;3.00;1.13;;;;;;;19.08;55.13;97341.47;10510122;28;20113;-67
2023/07/20 00:53:48;;;;;;;2.70;0.90;;;;;;;19.00;55.75;97341.22;10540119;28;20125;-67
2023/07/20 00:59:11;;;;;;;6.32;1.30;;;;;;;18.90;56.10;97348.72;10524757;28;20097;-67
2023/07/20 01:04:32;;;;;;;1.98;0.93;;;;;;;18.78;56.33;97349.09;10497173;28;20078;-67
2023/07/20 01:10:05;;;;;;;3.88;1.30;;;;;;;18.70;56.77;97348.84;10510349;28;20125;-67
2023/07/20 01:15:26;;;;;;;2.90;1.00;;;;;;;18.65;56.62;97352.94;10525374;28;20064;-67
2023/07/20 01:20:46;;;;;;;2.92;1.05;;;;;;;18.63;56.74;97362.06;10540116;28;20189;-68
2023/07/20 01:26:29;;;;;;;3.90;1.40;;;;;;;18.68;57.27;97363.63;10510174;28;20124;-67
2023/07/20 01:31:52;;;;;;;5.00;1.25;;;;;;;18.81;56.96;97359.06;10539329;28;20052;-68
2023/07/20 01:37:12;;;;;;;5.47;1.08;;;;;;;18.90;56.83;97360.72;10524038;28;20050;-67
2023/07/20 01:42:33;;;;;;;2.13;0.93;;;;;;;18.97;56.64;97362.34;10509823;28;20119;-67
2023/07/20 01:47:54;;;;;;;7.43;1.17;;;;;;;19.01;56.87;97368.16;10523956;28;20451;-67
2023/07/20 01:53:15;;;;;;;5.05;1.25;;;;;;;19.08;56.70;97364.09;10538785;28;20432;-67
2023/07/20 01:58:35;;;;;;;2.33;1.00;;;;;;;19.14;56.96;97361.44;10510287;28;20450;-67
2023/07/20 02:03:56;;;;;;;4.25;1.10;;;;;;;19.10;57.08;97355.66;10530999;28;20123;-67
2023/07/20 02:09:17;;;;;;;2.80;0.95;;;;;;;19.05;57.14;97359.75;10546345;28;20533;-67
2023/07/20 02:14:37;;;;;;;2.75;1.10;;;;;;;18.97;56.59;97351.03;10530936;28;20474;-67
2023/07/20 02:19:58;;;;;;;5.05;1.15;;;;;;;18.95;57.42;97355.94;10545839;28;20120;-67
2023/07/20 02:25:19;;;;;;;2.95;1.20;;;;;;;18.94;57.39;97366.53;10545715;28;20442;-67
2023/07/20 02:30:39;;;;;;;2.92;1.25;;;;;;;18.88;57.77;97358.56;10545313;28;20111;-67
2023/07/20 02:36:00;;;;;;;3.25;0.98;;;;;;;18.89;57.54;97370.59;10529965;28;20537;-67
2023/07/20 02:41:21;;;;;;;1.83;0.95;;;;;;;18.84;57.65;97374.72;10529782;28;20111;-67
2023/07/20 02:46:42;;;;;;;6.88;1.60;;;;;;;18.74;57.32;97368.75;10529584;28;20151;-67
2023/07/20 02:52:02;;;;;;;2.38;1.20;;;;;;;18.60;57.65;97363.38;10529458;28;20135;-67
2023/07/20 02:57:23;;;;;;;5.28;1.40;;;;;;;18.49;57.80;97370.81;10515138;28;20127;-67
2023/07/20 03:02:44;;;;;;;2.60;1.20;;;;;;;18.36;57.72;97377.50;10544307;28;20173;-67
2023/07/20 03:08:06;;;;;;;3.10;1.50;;;;;;;18.35;58.50;97380.97;10528610;28;20394;-67
2023/07/20 03:13:27;;;;;;;2.92;1.20;;;;;;;18.36;58.61;97383.13;10542870;28;20071;-67
2023/07/20 03:18:47;;;;;;;1.88;1.00;;;;;;;18.35;58.53;97387.34;10514265;28;20224;-67
2023/07/20 03:24:08;;;;;;;3.45;1.30;;;;;;;18.45;58.56;97398.97;10528044;28;20117;-67
2023/07/20 03:29:31;;;;;;;2.60;1.55;;;;;;;18.54;58.44;97395.00;10528319;28;20122;-67
2023/07/20 03:34:52;;;;;;;;;;;;;;;18.65;58.72;97401.72;10514424;28;20075;-67
2023/07/20 03:40:14;;;;;;;3.92;1.70;;;;;;;18.66;58.55;97389.03;10542839;28;20011;-67
2023/07/20 03:45:35;;;;;;;3.63;1.70;;;;;;;18.73;58.42;97390.66;10527575;28;20614;-67
2023/07/20 03:50:58;;;;;;;4.25;1.30;;;;;;;18.77;58.36;97390.06;10527060;28;20555;-68
2023/07/20 03:56:18;;;;;;;2.80;1.45;;;;;;;18.79;58.14;97401.41;10542071;28;20040;-68
2023/07/20 04:01:40;;;;;;;2.33;1.20;;;;;;;18.87;58.40;97401.66;10512827;28;20170;-67
2023/07/20 04:07:00;;;;;;;3.00;1.38;;;;;;;19.03;58.32;97401.41;10526598;28;20119;-67
2023/07/20 04:12:21;;;;;;;4.50;1.50;;;;;;;19.14;58.15;97403.88;10526160;28;20086;-66
2023/07/20 04:17:42;;;;;;;4.43;1.30;;;;;;;19.34;58.01;97406.53;10526170;28;20508;-68
2023/07/20 04:23:02;;;;;;;4.18;1.05;;;;;;;19.55;57.46;97419.13;10540697;28;20124;-67
2023/07/20 04:28:23;;;;;;;4.10;1.38;;;;;;;19.68;57.37;97420.94;10511475;28;20473;-67
2023/07/20 04:33:44;;;;;;;3.58;1.48;;;;;;;19.64;57.50;97417.28;10525098;28;20091;-67
2023/07/20 04:39:06;;;;;;;2.63;1.33;;;;;;;19.70;57.40;97415.34;10511222;28;20111;-67
2023/07/20 04:44:42;;;;;;;4.28;1.38;;;;;;;19.87;57.38;97427.06;10524961;28;20119;-67
2023/07/20 04:50:03;;;;;;;5.63;1.60;;;;;;;19.99;56.73;97430.25;10524648;28;20139;-67
2023/07/20 04:55:24;;;;;;;2.97;1.55;;;;;;;20.05;56.79;97427.53;10524636;28;20123;-68
2023/07/20 05:00:46;;;;;;;5.20;1.67;;;;;;;20.43;56.44;97424.25;10539580;28;20149;-67
2023/07/20 05:06:06;;;;;;;4.18;1.90;;;;;;;20.82;55.91;97420.91;10510265;28;20447;-68
2023/07/20 05:11:27;;;;;;;3.50;1.40;;;;;;;21.28;55.24;97437.50;10524009;28;20046;-67
2023/07/20 05:16:47;;;;;;;3.75;1.33;;;;;;;21.84;54.77;97434.34;10524059;28;20123;-67
2023/07/20 05:22:10;;;;;;;4.93;1.40;;;;;;;22.23;53.62;97426.53;10523727;28;20121;-67
2023/07/20 05:27:31;;;;;;;5.28;1.67;;;;;;;22.45;53.20;97426.16;10523382;28;20048;-68
2023/07/20 05:32:53;;;;;;;3.90;1.75;;;;;;;22.55;53.25;97435.56;10523885;28;20068;-67
2023/07/20 05:38:14;;;;;;;4.60;1.40;;;;;;;22.93;51.75;97431.16;10547085;28;20079;-67
2023/07/20 05:43:35;;;;;;;4.50;1.35;;;;;;;23.45;51.04;97439.69;10531888;28;20067;-67
2023/07/20 05:48:55;;;;;;;5.78;1.33;;;;;;;23.57;50.08;97436.25;10546444;28;20063;-67
2023/07/20 05:54:16;;;;;;;3.55;1.15;;;;;;;23.32;49.83;97441.63;10531359;28;20485;-67
2023/07/20 05:59:38;;;;;;;3.13;1.30;;;;;;;23.39;49.74;97448.13;10546369;28;20113;-68
2023/07/20 06:04:59;;;;;;;4.30;1.50;;;;;;;24.22;48.19;97443.34;10517006;28;20044;-67
2023/07/20 06:10:20;;;;;;;5.00;1.65;;;;;;;24.97;47.26;97448.22;10545911;28;20068;-68
2023/07/20 06:15:41;;;;;;;5.18;1.40;;;;;;;25.78;45.69;97460.06;10545577;28;20077;-68
2023/07/20 06:21:02;;;;;;;2.40;1.40;;;;;;;25.71;44.34;97458.59;10545457;28;20047;-67
2023/07/20 06:26:23;;;;;;;2.67;1.08;;;;;;;26.27;43.63;97456.59;10544981;28;20122;-68
2023/07/20 06:31:44;;;;;;;1.67;1.00;;;;;;;26.48;42.30;97450.19;10545059;28;20466;-68
2023/07/20 06:37:05;;;;;;;2.60;0.73;;;;;;;27.25;41.61;97445.78;10515651;28;20124;-68
2023/07/20 06:42:25;;;;;;;1.65;1.02;;;;;;;27.91;39.27;97441.22;10544549;28;20541;-68
2023/07/20 06:48:07;;;;;;;2.78;1.10;;;;;;;28.63;37.29;97439.28;10530906;28;20055;-68
2023/07/20 06:53:27;;;;;;;3.88;0.77;;;;;;;28.55;36.44;97445.06;10543860;28;20124;-67
2023/07/20 06:58:48;;;;;;;2.88;0.77;;;;;;;28.28;36.67;97446.69;10543282;28;20123;-69
2023/07/20 07:04:09;;;;;;;3.38;0.70;;;;;;;29.18;35.46;97453.13;10528558;28;20067;-68
2023/07/20 07:09:29;;;;;;;2.25;0.70;;;;;;;30.13;34.15;97453.41;10528274;28;20142;-68
2023/07/20 07:14:50;;;;;;;2.85;0.73;;;;;;;31.50;32.33;97452.50;10543169;28;20509;-68
2023/07/20 07:20:11;;;;;;;4.22;1.00;;;;;;;32.83;30.85;97450.25;10527448;28;20044;-71
2023/07/20 07:25:39;;;;;;;1.48;0.50;;;;;;;33.91;28.71;97455.97;10542537;28;20277;-70
2023/07/20 07:31:00;;;;;;;1.37;0.53;;;;;;;33.69;27.70;97454.41;10542116;28;20040;-70
2023/07/20 07:36:21;;;;;;;;;;;;;;;33.63;25.73;97456.78;10513888;28;20079;-70
2023/07/20 07:41:42;;;;;;;2.20;0.70;;;;;;;33.47;26.66;97464.44;10542426;28;19920;-71
2023/07/20 07:47:03;;;;;;;3.40;0.73;;;;;;;32.85;26.67;97470.41;10541762;28;20120;-70
2023/07/20 07:52:23;;;;;;;4.80;0.47;;;;;;;32.12;26.53;97469.94;10541840;28;20405;-70
2023/07/20 07:57:44;;;;;;;1.60;0.50;;;;;;;31.78;27.38;97467.81;10525927;28;20550;-71
2023/07/20 08:03:08;;;;;;;2.55;0.50;;;;;;;31.94;26.67;97464.56;10541251;28;20293;-70
2023/07/20 08:08:31;;;;;;;1.70;0.50;;;;;;;31.69;26.96;97480.97;10540895;28;20498;-70
2023/07/20 08:13:52;;;;;;;2.03;0.50;;;;;;;33.04;25.61;97470.66;10540966;28;20063;-71
2023/07/20 08:19:13;;;;;;;1.10;0.47;;;;;;;33.24;25.48;97473.00;10540719;28;20118;-71
2023/07/20 08:24:34;;;;;;;;;;;;;;;32.83;24.98;97481.28;10540815;28;20310;-70
2023/07/20 08:29:55;;;;;;;2.93;0.60;;;;;;;33.03;25.61;97483.69;10540534;28;20346;-70
2023/07/20 08:35:19;;;;;;;1.38;0.50;;;;;;;34.16;24.45;97473.28;10539788;28;20079;-70
2023/07/20 08:40:44;;;;;;;3.95;0.50;;;;;;;34.93;23.64;97479.50;10539945;28;20077;-71
2023/07/20 08:46:07;;;;;;;1.90;0.45;;;;;;;35.55;22.70;97483.91;10539570;28;20048;-71
2023/07/20 08:51:29;;;;;;;2.65;0.43;;;;;;;35.66;22.62;97490.06;10524653;28;20076;-71
2023/07/20 08:56:50;;;;;;;3.97;0.90;;;;;;;34.79;22.58;97474.19;10524503;28;20076;-71
2023/07/20 09:02:11;;;;;;;;;;;;;;;34.99;22.43;97476.41;10510490;28;20086;-71
2023/07/20 09:07:39;;;;;;;2.28;0.50;;;;;;;35.41;21.72;97472.81;10538744;28;19927;-71
2023/07/20 09:13:00;;;;;;;3.70;0.70;;;;;;;32.90;23.00;97476.78;10523605;28;20075;-71
2023/07/20 09:18:25;;;;;;;3.90;0.60;;;;;;;30.33;24.98;97479.00;10523815;28;20090;-71
2023/07/20 09:23:46;;;;;;;2.28;0.50;;;;;;;29.06;26.30;97482.00;10539092;28;20063;-70
2023/07/20 09:29:07;;;;;;;3.40;0.40;;;;;;;28.24;27.44;97476.84;10523696;28;20060;-70
2023/07/20 09:34:31;;;;;;;1.40;0.50;;;;;;;29.25;28.15;97465.28;10538435;28;20072;-70
2023/07/20 09:39:55;;;;;;;4.93;0.57;;;;;;;31.40;26.27;97472.88;10538459;28;20121;-70
2023/07/20 09:45:19;;;;;;;2.25;0.85;;;;;;;32.19;25.41;97468.34;10538489;28;20154;-71
2023/07/20 09:50:42;;;;;;;1.00;0.60;;;;;;;32.69;24.17;97465.72;10508838;28;20078;-70
2023/07/20 09:56:03;;;;;;;3.15;0.50;;;;;;;31.65;24.49;97478.16;10509187;28;20079;-71
2023/07/20 10:01:24;;;;;;;1.27;0.57;;;;;;;31.73;25.09;97466.44;10509233;28;20066;-70
2023/07/20 10:06:48;;;;;;;1.10;0.40;;;;;;;30.97;25.21;97473.63;10509685;28;20130;-70
2023/07/20 10:12:08;;;;;;;5.73;0.50;;;;;;;30.44;26.11;97465.88;10509086;28;20068;-71
2023/07/20 10:18:03;;;;;;;1.40;0.50;;;;;;;31.71;24.59;97454.97;10523738;28;20066;-71
2023/07/20 10:23:24;;;;;;;1.50;0.70;;;;;;;32.03;23.92;97465.81;10528886;28;20071;-70
2023/07/20 10:28:45;;;;;;;1.65;0.50;;;;;;;32.29;23.63;97455.13;10544999;28;20525;-71
2023/07/20 10:34:05;;;;;;;2.72;0.70;;;;;;;32.20;24.07;97460.38;10501806;28;20078;-71
2023/07/20 10:39:32;;;;;;;1.70;0.50;;;;;;;32.10;23.54;97469.97;10501765;28;20157;-70
2023/07/20 10:44:53;;;;;;;3.60;0.50;;;;;;;31.61;23.20;97473.91;10502251;28;20074;-70
2023/07/20 10:50:14;;;;;;;1.03;0.43;;;;;;;31.26;23.99;97464.50;10487368;28;20086;-70
2023/07/20 10:55:34;;;;;;;2.40;0.70;;;;;;;30.42;25.25;97476.72;10502102;28;20127;-70
2023/07/20 11:01:03;;;;;;;1.83;0.60;;;;;;;30.51;26.51;97472.25;10500842;28;20505;-70
2023/07/20 11:06:24;;;;;;;1.88;0.43;;;;;;;30.82;25.52;97481.13;10501344;28;20068;-71
2023/07/20 11:11:47;;;;;;;2.00;0.53;;;;;;;30.89;25.37;97462.28;10500739;28;20511;-70
2023/07/20 11:17:12;;;;;;;4.60;0.50;;;;;;;31.38;25.44;97467.16;10500523;28;20052;-70
2023/07/20 11:22:33;;;;;;;1.75;0.40;;;;;;;31.32;25.27;97464.38;10500438;28;20379;-70
2023/07/20 11:27:53;;;;;;;1.90;0.60;;;;;;;31.89;24.56;97449.53;10499953;28;20071;-71
2023/07/20 11:33:14;;;;;;;2.97;0.60;;;;;;;32.47;23.99;97446.06;10522448;28;20474;-71
2023/07/20 11:38:34;;;;;;;4.53;0.90;;;;;;;33.01;23.80;97446.16;10542178;28;20491;-70
2023/07/20 11:43:55;;;;;;;3.78;0.80;;;;;;;33.13;23.11;97434.28;10527110;28;20048;-70
2023/07/20 11:49:16;;;;;;;3.50;0.57;;;;;;;32.17;23.28;97436.63;10512892;28;20137;-71
2023/07/20 11:54:40;;;;;;;2.93;0.50;;;;;;;31.99;23.63;97433.44;10542001;28;20117;-70
2023/07/20 12:00:05;;;;;;;1.10;0.40;;;;;;;32.44;23.32;97430.25;10527002;28;20063;-70
2023/07/20 12:05:26;;;;;;;3.13;0.52;;;;;;;32.61;22.61;97416.81;10512755;28;20040;-71
2023/07/20 12:10:48;;;;;;;2.60;0.70;;;;;;;31.46;23.45;97420.88;10541150;28;20121;-70
2023/07/20 12:16:09;;;;;;;;;;;;;;;30.65;23.86;97422.38;10526088;28;20056;-71
2023/07/20 12:21:30;;;;;;;1.33;0.52;;;;;;;30.02;24.23;97429.09;10525476;28;19920;-70
2023/07/20 12:26:57;;;;;;;3.90;0.60;;;;;;;29.33;25.32;97425.63;10525189;28;20548;-71
2023/07/20 12:32:18;;;;;;;1.33;0.60;;;;;;;29.28;25.75;97412.06;10525462;28;20123;-70
2023/07/20 12:37:39;;;;;;;5.37;0.70;;;;;;;30.80;25.58;97414.19;10525197;28;20115;-70
2023/07/20 12:42:59;;;;;;;3.92;0.60;;;;;;;30.39;24.37;97406.94;10539948;28;20505;-70
2023/07/20 12:48:20;;;;;;;1.42;0.50;;;;;;;29.15;25.51;97407.91;10524765;28;20032;-71
2023/07/20 12:53:41;;;;;;;2.33;0.50;;;;;;;29.18;26.34;97409.31;10524374;28;20402;-70
2023/07/20 12:59:02;;;;;;;1.52;0.50;;;;;;;29.82;26.07;97410.66;10510541;28;20048;-70
2023/07/20 13:04:23;;;;;;;;;;;;;;;30.31;25.32;97395.56;10524155;28;20047;-70
2023/07/20 13:09:44;;;;;;;1.50;0.50;;;;;;;30.24;24.83;97388.47;10539237;28;19927;-71
2023/07/20 13:15:06;;;;;;;2.55;0.50;;;;;;;29.94;24.74;97386.75;10510218;28;20044;-70
2023/07/20 13:20:28;;;;;;;2.00;0.50;;;;;;;29.87;24.92;97396.94;10523859;28;20066;-71
2023/07/20 13:25:49;;;;;;;1.08;0.60;;;;;;;29.53;24.80;97395.22;10538952;28;20036;-71
2023/07/20 13:31:11;;;;;;;1.63;0.65;;;;;;;28.80;25.13;97385.97;10523589;28;20048;-71
2023/07/20 13:36:35;;;;;;;1.00;0.50;;;;;;;29.49;25.46;97396.00;10538735;28;20082;-70
2023/07/20 13:41:56;;;;;;;1.75;0.52;;;;;;;30.06;24.25;97383.69;10523414;28;20064;-70
2023/07/20 13:47:17;;;;;;;2.40;0.55;;;;;;;29.49;24.46;97386.66;10538512;28;20036;-70
2023/07/20 13:52:41;;;;;;;1.25;0.38;;;;;;;29.18;24.74;97375.53;10523876;28;20063;-70
2023/07/20 13:58:02;;;;;;;5.82;0.88;;;;;;;29.70;24.38;97382.06;10529622;28;20056;-70
2023/07/20 14:03:23;;;;;;;3.75;0.70;;;;;;;29.67;24.24;97377.81;10530762;28;20434;-70
2023/07/20 14:08:46;;;;;;;1.67;0.63;;;;;;;29.75;24.12;97376.97;10530569;28;20131;-70
2023/07/20 14:14:07;;;;;;;3.75;0.50;;;;;;;29.46;24.33;97388.13;10545768;28;20501;-70
2023/07/20 14:19:28;;;;;;;26.35;2.15;;;;;;;29.74;24.30;97378.44;10530342;28;20075;-70
2023/07/20 14:24:48;;;;;;;8.60;1.20;;;;;;;29.72;24.10;97372.69;10545232;28;20447;-70
2023/07/20 14:30:10;;;;;;;7.20;1.30;;;;;;;29.65;23.97;97374.97;10545153;28;20049;-70
2023/07/20 14:35:31;;;;;;;17.15;1.77;;;;;;;29.24;24.11;97357.50;10544694;28;20044;-71
2023/07/20 14:40:52;;;;;;;2.92;0.80;;;;;;;29.08;24.47;97382.13;10529826;28;20074;-70
2023/07/20 14:46:13;;;;;;;3.38;0.60;;;;;;;29.13;24.41;97385.66;10544860;28;20040;-70
2023/07/20 14:51:35;;;;;;;8.15;0.50;;;;;;;28.61;25.15;97395.50;10529071;28;20543;-68
2023/07/20 14:56:57;;;;;;;6.45;0.43;;;;;;;28.14;26.30;97413.81;10544274;28;20083;-68
2023/07/20 15:02:18;;;;;;;2.75;0.50;;;;;;;27.38;28.47;97409.91;10543766;28;20473;-70
2023/07/20 15:07:39;;;;;;;22.23;1.90;;;;;;;27.28;28.67;97410.66;10527537;28;20048;-71
2023/07/20 15:13:00;;;;;;;3.03;0.40;;;;;;;27.25;29.55;97428.59;10543416;28;20116;-70
2023/07/20 15:18:20;;;;;;;4.55;0.43;;;;;;;26.89;30.41;97415.78;10543263;28;20040;-67
2023/07/20 15:24:01;;;;;;;2.13;0.50;;;;;;;26.51;30.78;97431.56;10530453;28;20482;-69
2023/07/20 15:29:22;;;;;;;2.08;0.43;;;;;;;26.10;31.43;97427.25;10542783;28;20485;-70
2023/07/20 15:34:46;;;;;;;4.88;0.45;;;;;;;25.67;32.11;97429.97;10527790;28;20127;-68
2023/07/20 15:40:07;;;;;;;1.38;0.32;;;;;;;25.43;32.98;97432.75;10513164;28;20521;-69
2023/07/20 15:45:28;;;;;;;5.40;0.60;;;;;;;25.18;33.19;97429.78;10542146;28;20074;-69
2023/07/20 15:50:49;;;;;;;2.10;0.45;;;;;;;24.87;34.11;97436.72;10512752;28;20529;-70
2023/07/20 15:56:17;;;;;;;2.03;0.40;;;;;;;24.50;34.41;97430.75;10541415;28;20048;-70
2023/07/20 16:01:38;;;;;;;2.30;0.50;;;;;;;24.23;34.45;97438.38;10512438;28;20173;-68
2023/07/20 16:06:59;;;;;;;2.43;0.30;;;;;;;24.16;35.51;97428.31;10526183;28;20116;-67
2023/07/20 16:12:25;;;;;;;2.90;0.40;;;;;;;24.43;35.26;97437.84;10541092;28;20127;-68
2023/07/20 16:17:52;;;;;;;3.58;0.25;;;;;;;24.64;34.09;97433.72;10540447;28;20067;-67
2023/07/20 16:23:20;;;;;;;0.60;0.20;;;;;;;24.31;33.33;97437.72;10540559;28;20116;-68
2023/07/20 16:28:41;;;;;;;0.95;0.20;;;;;;;24.10;33.46;97431.81;10540141;28;20078;-67
2023/07/20 16:34:01;;;;;;;1.73;0.20;;;;;;;24.06;33.53;97437.50;10540341;28;20076;-67
2023/07/20 16:39:26;;;;;;;0.90;0.30;;;;;;;23.74;34.12;97449.28;10525735;28;20122;-67
2023/07/20 16:44:50;;;;;;;0.90;0.40;;;;;;;23.77;34.84;97442.19;10539856;28;20509;-67
2023/07/20 16:50:11;;;;;;;1.10;0.40;;;;;;;23.72;35.33;97449.25;10539665;28;20040;-68
2023/07/20 16:55:32;;;;;;;4.13;0.73;;;;;;;23.47;36.00;97450.38;10539569;28;20070;-67
2023/07/20 17:01:04;;;;;;;2.90;0.60;;;;;;;23.40;36.30;97449.56;10539532;28;20133;-68
2023/07/20 17:06:25;;;;;;;2.73;0.60;;;;;;;23.26;36.43;97443.69;10510594;28;20037;-68
2023/07/20 17:11:46;;;;;;;4.03;0.50;;;;;;;23.05;37.01;97440.56;10539291;28;20545;-68
2023/07/20 17:17:07;;;;;;;2.45;0.70;;;;;;;22.87;36.93;97448.84;10539150;28;20562;-68
2023/07/20 17:22:28;;;;;;;3.67;0.60;;;;;;;22.79;37.47;97446.59;10523812;28;20040;-67
2023/07/20 17:27:49;;;;;;;1.15;0.63;;;;;;;22.71;37.51;97454.28;10538881;28;20068;-67
2023/07/20 17:33:14;;;;;;;5.32;0.70;;;;;;;22.76;37.60;97459.34;10546080;28;20123;-68
2023/07/20 17:38:34;;;;;;;3.47;0.55;;;;;;;22.69;37.61;97469.22;10547043;28;20050;-68
2023/07/20 17:43:58;;;;;;;1.98;0.60;;;;;;;22.60;37.44;97470.50;10532370;28;20491;-67
2023/07/20 17:49:19;;;;;;;4.82;0.50;;;;;;;22.48;37.40;97470.28;10546495;28;20138;-67
2023/07/20 17:54:40;;;;;;;2.42;0.40;;;;;;;22.39;37.60;97477.97;10531417;28;20074;-68
2023/07/20 18:00:00;;;;;;;1.70;0.40;;;;;;;22.14;38.05;97464.72;10546361;28;20071;-68
2023/07/20 18:05:24;;;;;;;5.13;0.60;;;;;;;21.91;38.12;97467.16;10531543;28;20040;-68
2023/07/20 18:10:45;;;;;;;1.83;0.47;;;;;;;21.74;38.53;97468.25;10530495;28;20563;-67
2023/07/20 18:16:06;;;;;;;4.10;0.60;;;;;;;21.64;38.79;97476.56;10530436;28;20127;-67
2023/07/20 18:21:26;;;;;;;1.38;0.60;;;;;;;21.57;38.75;97477.84;10545524;28;20111;-67
2023/07/20 18:26:47;;;;;;;1.90;0.50;;;;;;;21.38;39.04;97479.59;10545084;28;20141;-67
2023/07/20 18:32:08;;;;;;;1.90;0.40;;;;;;;21.22;39.57;97484.88;10544698;28;20052;-66
2023/07/20 18:37:29;;;;;;;2.95;0.47;;;;;;;21.02;39.95;97485.16;10544881;28;20052;-67
2023/07/20 18:42:50;;;;;;;3.15;0.70;;;;;;;20.97;40.31;97492.16;10529194;28;20063;-67
2023/07/20 18:48:11;;;;;;;4.70;0.55;;;;;;;20.94;40.68;97496.31;10528987;28;20158;-67
2023/07/20 18:53:32;;;;;;;2.63;0.60;;;;;;;20.81;40.63;97487.53;10515283;28;20070;-67
2023/07/20 18:58:53;;;;;;;1.83;0.50;;;;;;;20.71;41.03;97497.91;10529012;28;20129;-67
2023/07/20 19:04:14;;;;;;;1.42;0.50;;;;;;;20.70;40.93;97499.31;10543589;28;20533;-67
2023/07/20 19:09:35;;;;;;;1.70;0.57;;;;;;;20.61;41.40;97501.22;10543710;28;20162;-66
2023/07/20 19:14:56;;;;;;;4.82;0.75;;;;;;;20.52;41.77;97508.09;10543181;28;20064;-67
2023/07/20 19:20:17;;;;;;;2.55;0.68;;;;;;;20.47;42.21;97515.78;10543203;28;20123;-66
2023/07/20 19:25:38;;;;;;;4.57;0.63;;;;;;;20.35;42.29;97523.22;10542704;28;20445;-67
2023/07/20 19:30:58;;;;;;;3.15;0.70;;;;;;;20.17;42.99;97524.22;10542412;28;20080;-67
2023/07/20 19:36:19;;;;;;;2.40;0.55;;;;;;;20.06;42.98;97545.16;10527349;28;20040;-67
2023/07/20 19:41:40;;;;;;;1.35;0.55;;;;;;;19.95;43.33;97538.47;10542772;28;20485;-67
2023/07/20 19:47:01;;;;;;;1.77;0.70;;;;;;;19.84;43.47;97539.59;10527107;28;20486;-67
2023/07/20 19:52:22;;;;;;;3.33;0.50;;;;;;;19.70;43.79;97551.25;10526238;28;20078;-67
2023/07/20 19:57:42;;;;;;;2.97;0.60;;;;;;;19.69;44.42;97551.91;10526746;28;20071;-67
2023/07/20 20:03:03;;;;;;;2.40;0.70;;;;;;;19.64;44.60;97553.91;10541648;28;20146;-66
2023/07/20 20:08:29;;;;;;;2.55;0.40;;;;;;;19.53;44.61;97552.13;10526756;28;20044;-67
2023/07/20 20:13:52;;;;;;;2.30;0.70;;;;;;;19.38;44.97;97548.16;10541455;28;20044;-67
2023/07/20 20:19:14;;;;;;;5.95;1.00;;;;;;;19.28;45.28;97550.69;10526286;28;20136;-67
2023/07/20 20:24:36;;;;;;;3.45;0.50;;;;;;;19.13;45.71;97558.03;10540907;28;20124;-67
2023/07/20 20:29:57;;;;;;;6.23;0.90;;;;;;;19.03;46.10;97549.22;10540521;28;20119;-67
2023/07/20 20:35:17;;;;;;;5.00;0.63;;;;;;;18.95;46.14;97553.91;10497242;28;20076;-66
2023/07/20 20:40:51;;;;;;;2.45;0.80;;;;;;;18.82;46.97;97558.44;10511219;28;20443;-67
2023/07/20 20:46:13;;;;;;;;;;;;;;;18.70;47.92;97558.03;10526332;28;20059;-67
2023/07/20 20:51:34;;;;;;;2.10;0.70;;;;;;;18.59;47.36;97568.25;10540088;28;20010;-67
2023/07/20 20:56:56;;;;;;;1.77;0.75;;;;;;;18.48;47.49;97560.81;10524590;28;20151;-67
2023/07/20 21:02:18;;;;;;;2.58;0.65;;;;;;;18.45;47.80;97562.88;10539819;28;20067;-66
2023/07/20 21:07:39;;;;;;;2.50;0.70;;;;;;;18.40;48.02;97561.28;10538374;28;20040;-66
2023/07/20 21:13:00;;;;;;;3.08;0.60;;;;;;;18.34;48.57;97558.25;10524340;28;20120;-67
2023/07/20 21:18:21;;;;;;;5.88;0.70;;;;;;;18.26;48.80;97566.44;10524429;28;20111;-69
2023/07/20 21:23:41;;;;;;;1.35;0.70;;;;;;;18.15;49.04;97565.38;10524321;28;20068;-67
2023/07/20 21:29:02;;;;;;;1.90;0.70;;;;;;;18.09;49.46;97558.78;10510330;28;20048;-69
2023/07/20 21:34:23;;;;;;;1.73;0.70;;;;;;;17.99;49.86;97571.16;10539327;28;20119;-67
2023/07/20 21:39:44;;;;;;;2.15;0.70;;;;;;;17.88;49.89;97565.81;10539278;28;20502;-69
2023/07/20 21:45:06;;;;;;;1.17;0.50;;;;;;;17.85;50.63;97565.00;10539061;28;20447;-69
2023/07/20 21:50:26;;;;;;;3.00;0.70;;;;;;;17.92;50.73;97580.78;10523948;28;20067;-69
2023/07/20 21:55:50;;;;;;;1.50;0.60;;;;;;;17.88;50.98;97571.47;10523841;28;20119;-67
2023/07/20 22:01:11;;;;;;;3.85;0.70;;;;;;;17.88;51.22;97583.47;10538749;28;20074;-67
2023/07/20 22:06:52;;;;;;;2.97;0.70;;;;;;;17.85;51.26;97584.75;10526678;28;20116;-67
2023/07/20 22:12:13;;;;;;;2.83;0.50;;;;;;;17.83;51.89;97583.97;10523457;28;20120;-69
2023/07/20 22:17:33;;;;;;;2.45;0.52;;;;;;;17.86;51.81;97577.03;10527101;28;20075;-69
2023/07/20 22:22:55;;;;;;;1.88;0.73;;;;;;;17.86;51.85;97577.03;10517190;28;20120;-69
2023/07/20 22:28:15;;;;;;;1.25;0.60;;;;;;;17.79;51.99;97578.91;10516846;28;20040;-69
2023/07/20 22:33:36;;;;;;;3.33;0.70;;;;;;;17.77;52.30;97572.47;10545574;28;20094;-69
2023/07/20 22:38:57;;;;;;;1.05;0.43;;;;;;;17.78;52.41;97557.69;10545463;28;20460;-69
2023/07/20 22:44:19;;;;;;;1.10;0.63;;;;;;;17.78;52.28;97557.69;10530281;28;20064;-69
2023/07/20 22:49:40;;;;;;;2.25;0.63;;;;;;;17.80;52.56;97549.28;10530022;28;20136;-68
2023/07/20 22:55:01;;;;;;;1.42;0.50;;;;;;;17.78;52.72;97551.34;10529863;28;20066;-69
2023/07/20 23:00:26;;;;;;;2.33;0.70;;;;;;;17.71;52.89;97550.38;10544556;28;20048;-69
2023/07/20 23:05:49;;;;;;;5.15;0.90;;;;;;;17.68;52.98;97546.00;10530040;28;20517;-69
2023/07/20 23:11:11;;;;;;;2.22;0.80;;;;;;;17.66;53.21;97543.84;10544282;28;20071;-69
2023/07/20 23:16:32;;;;;;;2.78;0.60;;;;;;;17.61;53.15;97545.06;10515027;28;20112;-69
2023/07/20 23:21:54;;;;;;;2.35;0.88;;;;;;;17.58;53.42;97551.28;10528804;28;20139;-68
2023/07/20 23:27:15;;;;;;;8.05;0.80;;;;;;;17.51;54.13;97544.69;10542382;28;20116;-68
2023/07/20 23:32:35;;;;;;;1.55;0.63;;;;;;;17.49;53.79;97538.25;10528059;28;20091;-68
2023/07/20 23:37:57;;;;;;;3.28;1.05;;;;;;;17.41;53.73;97545.03;10543293;28;20124;-67
2023/07/20 23:43:17;;;;;;;4.78;0.90;;;;;;;17.34;54.10;97556.72;10542892;28;20039;-67
2023/07/20 23:48:41;;;;;;;3.92;0.88;;;;;;;17.32;54.25;97548.19;10527707;28;20074;-67
2023/07/20 23:54:03;;;;;;;3.33;0.90;;;;;;;17.31;53.99;97535.47;10542427;28;20431;-67
2023/07/20 23:59:24;;;;;;;2.03;0.75;;;;;;;17.25;54.43;97538.75;10542335;28;20079;-67
